sensor_id;sensor_type;location;lat;lon;timestamp;P1;durP1;ratioP1;P2;durP2;ratioP2
32250;SDS011;41295;48.518;9.206;2023-02-15T00:01:55;50.22;;;24.08;;
32250;SDS011;41295;48.518;9.206;2023-02-15T00:04:00;42.30;;;23.08;;
32250;SDS011;41295;48.518;9.206;2023-02-15T00:06:03;43.83;;;23.70;;
32250;SDS011;41295;48.518;9.206;2023-02-15T00:08:05;50.63;;;22.90;;
32250;SDS011;41295;48.518;9.206;2023-02-15T00:10:08;38.80;;;22.15;;
32250;SDS011;41295;48.518;9.206;2023-02-15T00:12:13;38.53;;;21.50;;
32250;SDS011;41295;48.518;9.206;2023-02-15T00:14:17;39.33;;;21.05;;
32250;SDS011;41295;48.518;9.206;2023-02-15T00:16:21;45.13;;;22.10;;
32250;SDS011;41295;48.518;9.206;2023-02-15T00:18:24;45.58;;;21.30;;
32250;SDS011;41295;48.518;9.206;2023-02-15T00:20:28;43.60;;;22.20;;
32250;SDS011;41295;48.518;9.206;2023-02-15T00:22:30;40.65;;;21.40;;
32250;SDS011;41295;48.518;9.206;2023-02-15T00:24:33;40.08;;;20.42;;
32250;SDS011;41295;48.518;9.206;2023-02-15T00:26:37;40.63;;;21.35;;
32250;SDS011;41295;48.518;9.206;2023-02-15T00:28:40;40.50;;;20.65;;
32250;SDS011;41295;48.518;9.206;2023-02-15T00:30:42;39.70;;;19.88;;
32250;SDS011;41295;48.518;9.206;2023-02-15T00:32:46;38.53;;;19.65;;
32250;SDS011;41295;48.518;9.206;2023-02-15T00:34:49;37.05;;;20.33;;
32250;SDS011;41295;48.518;9.206;2023-02-15T00:36:53;43.50;;;20.27;;
32250;SDS011;41295;48.518;9.206;2023-02-15T00:38:56;38.05;;;20.60;;
32250;SDS011;41295;48.518;9.206;2023-02-15T00:40:59;36.17;;;20.70;;
32250;SDS011;41295;48.518;9.206;2023-02-15T00:43:03;34.15;;;19.65;;
32250;SDS011;41295;48.518;9.206;2023-02-15T00:45:06;36.40;;;19.50;;
32250;SDS011;41295;48.518;9.206;2023-02-15T00:47:10;34.85;;;19.45;;
32250;SDS011;41295;48.518;9.206;2023-02-15T00:49:12;38.20;;;19.55;;
32250;SDS011;41295;48.518;9.206;2023-02-15T00:51:15;36.83;;;19.10;;
32250;SDS011;41295;48.518;9.206;2023-02-15T00:53:20;37.40;;;20.20;;
32250;SDS011;41295;48.518;9.206;2023-02-15T00:55:23;36.97;;;20.02;;
32250;SDS011;41295;48.518;9.206;2023-02-15T00:57:25;34.92;;;19.35;;
32250;SDS011;41295;48.518;9.206;2023-02-15T00:59:28;35.90;;;18.85;;
32250;SDS011;41295;48.518;9.206;2023-02-15T01:01:30;38.20;;;19.50;;
32250;SDS011;41295;48.518;9.206;2023-02-15T01:03:33;35.38;;;18.80;;
32250;SDS011;41295;48.518;9.206;2023-02-15T01:05:36;34.90;;;18.92;;
32250;SDS011;41295;48.518;9.206;2023-02-15T01:07:39;39.03;;;19.88;;
32250;SDS011;41295;48.518;9.206;2023-02-15T01:09:43;40.67;;;19.80;;
32250;SDS011;41295;48.518;9.206;2023-02-15T01:11:45;33.97;;;18.95;;
32250;SDS011;41295;48.518;9.206;2023-02-15T01:13:48;34.78;;;18.98;;
32250;SDS011;41295;48.518;9.206;2023-02-15T01:15:52;34.15;;;19.25;;
32250;SDS011;41295;48.518;9.206;2023-02-15T01:17:56;35.80;;;18.67;;
32250;SDS011;41295;48.518;9.206;2023-02-15T01:19:59;35.03;;;19.83;;
32250;SDS011;41295;48.518;9.206;2023-02-15T01:22:01;35.97;;;20.00;;
32250;SDS011;41295;48.518;9.206;2023-02-15T01:24:04;36.47;;;19.13;;
32250;SDS011;41295;48.518;9.206;2023-02-15T01:26:09;34.50;;;19.35;;
32250;SDS011;41295;48.518;9.206;2023-02-15T01:28:12;36.92;;;19.20;;
32250;SDS011;41295;48.518;9.206;2023-02-15T01:30:15;40.22;;;19.92;;
32250;SDS011;41295;48.518;9.206;2023-02-15T01:32:20;34.80;;;19.27;;
32250;SDS011;41295;48.518;9.206;2023-02-15T01:34:23;38.00;;;19.17;;
32250;SDS011;41295;48.518;9.206;2023-02-15T01:36:26;37.70;;;19.98;;
32250;SDS011;41295;48.518;9.206;2023-02-15T01:38:28;34.42;;;19.00;;
32250;SDS011;41295;48.518;9.206;2023-02-15T01:40:31;35.70;;;19.33;;
32250;SDS011;41295;48.518;9.206;2023-02-15T01:42:35;32.13;;;17.45;;
32250;SDS011;41295;48.518;9.206;2023-02-15T01:44:48;35.03;;;18.50;;
32250;SDS011;41295;48.518;9.206;2023-02-15T01:46:52;41.70;;;18.73;;
32250;SDS011;41295;48.518;9.206;2023-02-15T01:48:56;45.92;;;19.30;;
32250;SDS011;41295;48.518;9.206;2023-02-15T01:51:03;35.83;;;18.42;;
32250;SDS011;41295;48.518;9.206;2023-02-15T01:53:07;37.97;;;19.17;;
32250;SDS011;41295;48.518;9.206;2023-02-15T01:55:15;36.63;;;19.05;;
32250;SDS011;41295;48.518;9.206;2023-02-15T01:57:19;35.30;;;18.95;;
32250;SDS011;41295;48.518;9.206;2023-02-15T01:59:27;33.42;;;18.40;;
32250;SDS011;41295;48.518;9.206;2023-02-15T02:01:30;33.22;;;17.63;;
32250;SDS011;41295;48.518;9.206;2023-02-15T02:03:36;33.42;;;17.58;;
32250;SDS011;41295;48.518;9.206;2023-02-15T02:05:44;36.55;;;17.85;;
32250;SDS011;41295;48.518;9.206;2023-02-15T02:07:46;32.97;;;18.95;;
32250;SDS011;41295;48.518;9.206;2023-02-15T02:09:52;32.60;;;17.08;;
32250;SDS011;41295;48.518;9.206;2023-02-15T02:11:54;36.42;;;18.20;;
32250;SDS011;41295;48.518;9.206;2023-02-15T02:13:57;32.20;;;18.35;;
32250;SDS011;41295;48.518;9.206;2023-02-15T02:16:03;37.20;;;18.25;;
32250;SDS011;41295;48.518;9.206;2023-02-15T02:18:17;34.88;;;18.02;;
32250;SDS011;41295;48.518;9.206;2023-02-15T02:23:15;33.42;;;17.77;;
32250;SDS011;41295;48.518;9.206;2023-02-15T02:25:30;34.38;;;17.48;;
32250;SDS011;41295;48.518;9.206;2023-02-15T02:27:48;32.88;;;18.10;;
32250;SDS011;41295;48.518;9.206;2023-02-15T02:33:15;31.90;;;18.45;;
32250;SDS011;41295;48.518;9.206;2023-02-15T02:35:28;33.00;;;17.30;;
32250;SDS011;41295;48.518;9.206;2023-02-15T02:37:37;29.98;;;17.40;;
32250;SDS011;41295;48.518;9.206;2023-02-15T02:40:03;30.50;;;17.20;;
32250;SDS011;41295;48.518;9.206;2023-02-15T02:42:15;34.63;;;16.35;;
32250;SDS011;41295;48.518;9.206;2023-02-15T02:44:25;33.67;;;16.83;;
32250;SDS011;41295;48.518;9.206;2023-02-15T02:46:32;31.65;;;16.35;;
32250;SDS011;41295;48.518;9.206;2023-02-15T02:48:40;33.20;;;17.05;;
32250;SDS011;41295;48.518;9.206;2023-02-15T02:50:43;31.38;;;16.23;;
32250;SDS011;41295;48.518;9.206;2023-02-15T02:52:47;31.88;;;17.17;;
32250;SDS011;41295;48.518;9.206;2023-02-15T02:54:50;33.13;;;17.52;;
32250;SDS011;41295;48.518;9.206;2023-02-15T02:56:53;32.08;;;17.88;;
32250;SDS011;41295;48.518;9.206;2023-02-15T02:58:59;36.63;;;16.98;;
32250;SDS011;41295;48.518;9.206;2023-02-15T03:01:09;28.15;;;16.40;;
32250;SDS011;41295;48.518;9.206;2023-02-15T03:03:18;32.60;;;17.70;;
32250;SDS011;41295;48.518;9.206;2023-02-15T03:05:27;33.88;;;17.40;;
32250;SDS011;41295;48.518;9.206;2023-02-15T03:07:32;31.20;;;16.83;;
32250;SDS011;41295;48.518;9.206;2023-02-15T03:09:38;30.17;;;17.35;;
32250;SDS011;41295;48.518;9.206;2023-02-15T03:11:43;32.53;;;16.60;;
32250;SDS011;41295;48.518;9.206;2023-02-15T03:13:47;27.95;;;16.15;;
32250;SDS011;41295;48.518;9.206;2023-02-15T03:15:51;32.47;;;16.85;;
32250;SDS011;41295;48.518;9.206;2023-02-15T03:18:15;30.67;;;16.95;;
32250;SDS011;41295;48.518;9.206;2023-02-15T03:20:20;35.08;;;16.92;;
32250;SDS011;41295;48.518;9.206;2023-02-15T03:22:28;32.35;;;16.63;;
32250;SDS011;41295;48.518;9.206;2023-02-15T03:24:37;36.38;;;17.67;;
32250;SDS011;41295;48.518;9.206;2023-02-15T03:26:45;32.08;;;17.45;;
32250;SDS011;41295;48.518;9.206;2023-02-15T03:28:50;32.13;;;17.80;;
32250;SDS011;41295;48.518;9.206;2023-02-15T03:30:55;37.08;;;18.05;;
32250;SDS011;41295;48.518;9.206;2023-02-15T03:33:02;32.58;;;16.75;;
32250;SDS011;41295;48.518;9.206;2023-02-15T03:35:06;35.92;;;18.17;;
32250;SDS011;41295;48.518;9.206;2023-02-15T03:37:10;32.25;;;17.65;;
32250;SDS011;41295;48.518;9.206;2023-02-15T03:39:20;34.70;;;17.55;;
32250;SDS011;41295;48.518;9.206;2023-02-15T03:41:25;33.97;;;17.65;;
32250;SDS011;41295;48.518;9.206;2023-02-15T03:43:30;35.13;;;17.88;;
32250;SDS011;41295;48.518;9.206;2023-02-15T03:45:40;34.63;;;17.65;;
32250;SDS011;41295;48.518;9.206;2023-02-15T03:47:56;33.63;;;18.02;;
32250;SDS011;41295;48.518;9.206;2023-02-15T03:50:02;34.90;;;18.42;;
32250;SDS011;41295;48.518;9.206;2023-02-15T03:52:28;35.30;;;19.52;;
32250;SDS011;41295;48.518;9.206;2023-02-15T03:54:34;32.00;;;18.23;;
32250;SDS011;41295;48.518;9.206;2023-02-15T03:56:44;36.50;;;18.17;;
32250;SDS011;41295;48.518;9.206;2023-02-15T03:59:07;35.63;;;19.15;;
32250;SDS011;41295;48.518;9.206;2023-02-15T04:01:29;31.08;;;17.00;;
32250;SDS011;41295;48.518;9.206;2023-02-15T04:03:55;37.08;;;18.05;;
32250;SDS011;41295;48.518;9.206;2023-02-15T04:06:02;38.63;;;17.70;;
32250;SDS011;41295;48.518;9.206;2023-02-15T04:08:05;32.58;;;17.52;;
32250;SDS011;41295;48.518;9.206;2023-02-15T04:10:10;38.17;;;18.05;;
32250;SDS011;41295;48.518;9.206;2023-02-15T04:12:30;33.45;;;19.33;;
32250;SDS011;41295;48.518;9.206;2023-02-15T04:14:33;31.98;;;18.58;;
32250;SDS011;41295;48.518;9.206;2023-02-15T04:16:53;35.60;;;18.05;;
32250;SDS011;41295;48.518;9.206;2023-02-15T04:18:56;32.85;;;18.55;;
32250;SDS011;41295;48.518;9.206;2023-02-15T04:21:16;32.22;;;16.73;;
32250;SDS011;41295;48.518;9.206;2023-02-15T04:23:36;37.78;;;17.48;;
32250;SDS011;41295;48.518;9.206;2023-02-15T04:25:57;35.25;;;17.83;;
32250;SDS011;41295;48.518;9.206;2023-02-15T04:28:01;32.88;;;17.90;;
32250;SDS011;41295;48.518;9.206;2023-02-15T04:30:03;33.63;;;18.08;;
32250;SDS011;41295;48.518;9.206;2023-02-15T04:32:07;31.10;;;17.13;;
32250;SDS011;41295;48.518;9.206;2023-02-15T04:34:10;33.63;;;18.30;;
32250;SDS011;41295;48.518;9.206;2023-02-15T04:36:13;31.38;;;17.55;;
32250;SDS011;41295;48.518;9.206;2023-02-15T04:38:15;36.00;;;18.98;;
32250;SDS011;41295;48.518;9.206;2023-02-15T04:40:18;36.20;;;17.77;;
32250;SDS011;41295;48.518;9.206;2023-02-15T04:42:22;36.00;;;18.30;;
32250;SDS011;41295;48.518;9.206;2023-02-15T04:44:24;36.47;;;18.23;;
32250;SDS011;41295;48.518;9.206;2023-02-15T04:46:27;32.75;;;16.98;;
32250;SDS011;41295;48.518;9.206;2023-02-15T04:48:30;35.53;;;18.02;;
32250;SDS011;41295;48.518;9.206;2023-02-15T04:50:33;33.67;;;18.00;;
32250;SDS011;41295;48.518;9.206;2023-02-15T04:52:36;31.52;;;17.70;;
32250;SDS011;41295;48.518;9.206;2023-02-15T04:54:39;36.35;;;17.80;;
32250;SDS011;41295;48.518;9.206;2023-02-15T04:56:41;35.45;;;18.30;;
32250;SDS011;41295;48.518;9.206;2023-02-15T04:58:45;32.83;;;17.75;;
32250;SDS011;41295;48.518;9.206;2023-02-15T05:00:48;33.63;;;17.02;;
32250;SDS011;41295;48.518;9.206;2023-02-15T05:02:51;30.98;;;18.05;;
32250;SDS011;41295;48.518;9.206;2023-02-15T05:04:54;30.10;;;16.92;;
32250;SDS011;41295;48.518;9.206;2023-02-15T05:06:56;31.40;;;17.08;;
32250;SDS011;41295;48.518;9.206;2023-02-15T05:08:59;36.17;;;18.38;;
32250;SDS011;41295;48.518;9.206;2023-02-15T05:11:01;38.88;;;17.98;;
32250;SDS011;41295;48.518;9.206;2023-02-15T05:13:04;34.53;;;17.90;;
32250;SDS011;41295;48.518;9.206;2023-02-15T05:15:08;33.47;;;18.33;;
32250;SDS011;41295;48.518;9.206;2023-02-15T05:17:11;35.50;;;18.27;;
32250;SDS011;41295;48.518;9.206;2023-02-15T05:19:13;29.58;;;16.35;;
32250;SDS011;41295;48.518;9.206;2023-02-15T05:21:16;35.95;;;18.52;;
32250;SDS011;41295;48.518;9.206;2023-02-15T05:23:19;33.38;;;17.27;;
32250;SDS011;41295;48.518;9.206;2023-02-15T05:25:21;34.97;;;16.67;;
32250;SDS011;41295;48.518;9.206;2023-02-15T05:27:42;27.23;;;15.57;;
32250;SDS011;41295;48.518;9.206;2023-02-15T05:30:05;30.05;;;17.13;;
32250;SDS011;41295;48.518;9.206;2023-02-15T05:32:16;32.20;;;15.98;;
32250;SDS011;41295;48.518;9.206;2023-02-15T05:34:19;29.85;;;16.45;;
32250;SDS011;41295;48.518;9.206;2023-02-15T05:36:21;34.13;;;16.70;;
32250;SDS011;41295;48.518;9.206;2023-02-15T05:38:24;37.25;;;16.63;;
32250;SDS011;41295;48.518;9.206;2023-02-15T05:40:26;31.15;;;17.48;;
32250;SDS011;41295;48.518;9.206;2023-02-15T05:42:29;31.88;;;16.88;;
32250;SDS011;41295;48.518;9.206;2023-02-15T05:44:32;32.13;;;16.50;;
32250;SDS011;41295;48.518;9.206;2023-02-15T05:46:34;32.25;;;16.60;;
32250;SDS011;41295;48.518;9.206;2023-02-15T05:48:38;31.70;;;15.25;;
32250;SDS011;41295;48.518;9.206;2023-02-15T05:50:41;32.03;;;16.42;;
32250;SDS011;41295;48.518;9.206;2023-02-15T05:52:43;32.35;;;16.05;;
32250;SDS011;41295;48.518;9.206;2023-02-15T05:54:46;34.75;;;16.15;;
32250;SDS011;41295;48.518;9.206;2023-02-15T05:56:49;28.02;;;16.00;;
32250;SDS011;41295;48.518;9.206;2023-02-15T05:58:52;36.42;;;15.60;;
32250;SDS011;41295;48.518;9.206;2023-02-15T06:00:57;30.13;;;16.15;;
32250;SDS011;41295;48.518;9.206;2023-02-15T06:02:59;32.50;;;16.58;;
32250;SDS011;41295;48.518;9.206;2023-02-15T06:05:04;28.45;;;15.75;;
32250;SDS011;41295;48.518;9.206;2023-02-15T06:07:07;30.05;;;16.58;;
32250;SDS011;41295;48.518;9.206;2023-02-15T06:09:10;33.72;;;16.42;;
32250;SDS011;41295;48.518;9.206;2023-02-15T06:11:13;32.08;;;16.73;;
32250;SDS011;41295;48.518;9.206;2023-02-15T06:13:15;45.25;;;20.73;;
32250;SDS011;41295;48.518;9.206;2023-02-15T06:15:18;43.50;;;20.13;;
32250;SDS011;41295;48.518;9.206;2023-02-15T06:17:21;40.05;;;21.30;;
32250;SDS011;41295;48.518;9.206;2023-02-15T06:19:23;40.05;;;20.25;;
32250;SDS011;41295;48.518;9.206;2023-02-15T06:21:27;43.65;;;19.52;;
32250;SDS011;41295;48.518;9.206;2023-02-15T06:23:30;36.58;;;18.65;;
32250;SDS011;41295;48.518;9.206;2023-02-15T06:25:33;42.55;;;19.00;;
32250;SDS011;41295;48.518;9.206;2023-02-15T06:27:37;37.80;;;18.98;;
32250;SDS011;41295;48.518;9.206;2023-02-15T06:29:43;47.60;;;19.50;;
32250;SDS011;41295;48.518;9.206;2023-02-15T06:31:45;36.97;;;18.77;;
32250;SDS011;41295;48.518;9.206;2023-02-15T06:33:51;36.15;;;19.30;;
32250;SDS011;41295;48.518;9.206;2023-02-15T06:35:53;40.63;;;20.15;;
32250;SDS011;41295;48.518;9.206;2023-02-15T06:37:57;43.33;;;20.08;;
32250;SDS011;41295;48.518;9.206;2023-02-15T06:40:00;38.45;;;20.45;;
32250;SDS011;41295;48.518;9.206;2023-02-15T06:42:04;38.50;;;20.42;;
32250;SDS011;41295;48.518;9.206;2023-02-15T06:44:07;40.35;;;21.60;;
32250;SDS011;41295;48.518;9.206;2023-02-15T06:46:09;43.78;;;20.40;;
32250;SDS011;41295;48.518;9.206;2023-02-15T06:48:12;40.13;;;18.25;;
32250;SDS011;41295;48.518;9.206;2023-02-15T06:50:15;42.35;;;19.83;;
32250;SDS011;41295;48.518;9.206;2023-02-15T06:52:18;40.42;;;19.45;;
32250;SDS011;41295;48.518;9.206;2023-02-15T06:54:22;43.65;;;20.52;;
32250;SDS011;41295;48.518;9.206;2023-02-15T06:56:24;41.80;;;20.75;;
32250;SDS011;41295;48.518;9.206;2023-02-15T06:58:27;42.70;;;20.65;;
32250;SDS011;41295;48.518;9.206;2023-02-15T07:00:29;40.47;;;20.55;;
32250;SDS011;41295;48.518;9.206;2023-02-15T07:02:32;37.40;;;19.85;;
32250;SDS011;41295;48.518;9.206;2023-02-15T07:04:35;44.53;;;20.67;;
32250;SDS011;41295;48.518;9.206;2023-02-15T07:06:38;42.15;;;19.65;;
32250;SDS011;41295;48.518;9.206;2023-02-15T07:08:41;45.30;;;20.92;;
32250;SDS011;41295;48.518;9.206;2023-02-15T07:10:45;43.30;;;20.48;;
32250;SDS011;41295;48.518;9.206;2023-02-15T07:12:48;41.38;;;20.65;;
32250;SDS011;41295;48.518;9.206;2023-02-15T07:16:52;37.20;;;17.77;;
32250;SDS011;41295;48.518;9.206;2023-02-15T07:18:54;46.40;;;21.25;;
32250;SDS011;41295;48.518;9.206;2023-02-15T07:20:57;41.78;;;19.38;;
32250;SDS011;41295;48.518;9.206;2023-02-15T07:23:00;40.80;;;18.00;;
32250;SDS011;41295;48.518;9.206;2023-02-15T07:25:02;38.63;;;17.65;;
32250;SDS011;41295;48.518;9.206;2023-02-15T07:27:07;46.83;;;19.17;;
32250;SDS011;41295;48.518;9.206;2023-02-15T07:29:09;33.15;;;16.15;;
32250;SDS011;41295;48.518;9.206;2023-02-15T07:31:12;34.22;;;17.00;;
32250;SDS011;41295;48.518;9.206;2023-02-15T07:33:15;34.50;;;17.08;;
32250;SDS011;41295;48.518;9.206;2023-02-15T07:35:28;30.52;;;16.73;;
32250;SDS011;41295;48.518;9.206;2023-02-15T07:37:30;34.97;;;15.95;;
32250;SDS011;41295;48.518;9.206;2023-02-15T07:39:33;27.27;;;14.10;;
32250;SDS011;41295;48.518;9.206;2023-02-15T07:41:35;26.95;;;13.63;;
32250;SDS011;41295;48.518;9.206;2023-02-15T07:43:40;26.10;;;14.38;;
32250;SDS011;41295;48.518;9.206;2023-02-15T07:45:44;28.20;;;13.95;;
32250;SDS011;41295;48.518;9.206;2023-02-15T07:47:47;26.27;;;14.40;;
32250;SDS011;41295;48.518;9.206;2023-02-15T07:49:49;24.05;;;13.82;;
32250;SDS011;41295;48.518;9.206;2023-02-15T07:51:52;27.17;;;14.15;;
32250;SDS011;41295;48.518;9.206;2023-02-15T07:53:54;26.85;;;14.43;;
32250;SDS011;41295;48.518;9.206;2023-02-15T07:55:58;24.77;;;13.18;;
32250;SDS011;41295;48.518;9.206;2023-02-15T07:58:01;24.80;;;13.30;;
32250;SDS011;41295;48.518;9.206;2023-02-15T08:00:06;25.80;;;13.05;;
32250;SDS011;41295;48.518;9.206;2023-02-15T08:02:09;21.73;;;12.70;;
32250;SDS011;41295;48.518;9.206;2023-02-15T08:04:12;24.83;;;14.07;;
32250;SDS011;41295;48.518;9.206;2023-02-15T08:06:15;25.13;;;13.65;;
32250;SDS011;41295;48.518;9.206;2023-02-15T08:08:18;25.70;;;13.48;;
32250;SDS011;41295;48.518;9.206;2023-02-15T08:10:31;25.10;;;13.95;;
32250;SDS011;41295;48.518;9.206;2023-02-15T08:12:48;26.30;;;13.68;;
32250;SDS011;41295;48.518;9.206;2023-02-15T08:14:50;26.00;;;14.25;;
32250;SDS011;41295;48.518;9.206;2023-02-15T08:16:54;27.33;;;14.95;;
32250;SDS011;41295;48.518;9.206;2023-02-15T08:18:58;32.05;;;14.68;;
32250;SDS011;41295;48.518;9.206;2023-02-15T08:21:02;24.08;;;13.38;;
32250;SDS011;41295;48.518;9.206;2023-02-15T08:23:05;26.63;;;13.40;;
32250;SDS011;41295;48.518;9.206;2023-02-15T08:25:08;25.95;;;13.88;;
32250;SDS011;41295;48.518;9.206;2023-02-15T08:27:11;25.70;;;13.88;;
32250;SDS011;41295;48.518;9.206;2023-02-15T08:29:13;29.27;;;14.20;;
32250;SDS011;41295;48.518;9.206;2023-02-15T08:31:17;27.60;;;14.82;;
32250;SDS011;41295;48.518;9.206;2023-02-15T08:33:21;29.67;;;15.00;;
32250;SDS011;41295;48.518;9.206;2023-02-15T08:35:24;28.13;;;15.52;;
32250;SDS011;41295;48.518;9.206;2023-02-15T08:37:26;35.17;;;15.30;;
32250;SDS011;41295;48.518;9.206;2023-02-15T08:39:29;31.23;;;15.85;;
32250;SDS011;41295;48.518;9.206;2023-02-15T08:41:33;30.40;;;15.15;;
32250;SDS011;41295;48.518;9.206;2023-02-15T08:43:37;26.17;;;15.15;;
32250;SDS011;41295;48.518;9.206;2023-02-15T08:45:39;28.83;;;15.05;;
32250;SDS011;41295;48.518;9.206;2023-02-15T08:47:43;27.05;;;14.45;;
32250;SDS011;41295;48.518;9.206;2023-02-15T08:49:49;25.50;;;14.07;;
32250;SDS011;41295;48.518;9.206;2023-02-15T08:51:52;24.17;;;14.13;;
32250;SDS011;41295;48.518;9.206;2023-02-15T08:53:55;26.88;;;13.80;;
32250;SDS011;41295;48.518;9.206;2023-02-15T08:55:59;26.13;;;13.68;;
32250;SDS011;41295;48.518;9.206;2023-02-15T08:58:02;31.10;;;16.02;;
32250;SDS011;41295;48.518;9.206;2023-02-15T09:00:05;30.35;;;14.90;;
32250;SDS011;41295;48.518;9.206;2023-02-15T09:02:09;27.25;;;14.77;;
32250;SDS011;41295;48.518;9.206;2023-02-15T09:04:12;25.88;;;14.20;;
32250;SDS011;41295;48.518;9.206;2023-02-15T09:06:18;29.35;;;15.13;;
32250;SDS011;41295;48.518;9.206;2023-02-15T09:08:21;34.15;;;16.60;;
32250;SDS011;41295;48.518;9.206;2023-02-15T09:10:24;32.22;;;17.02;;
32250;SDS011;41295;48.518;9.206;2023-02-15T09:12:26;33.03;;;17.30;;
32250;SDS011;41295;48.518;9.206;2023-02-15T09:14:29;35.15;;;17.92;;
32250;SDS011;41295;48.518;9.206;2023-02-15T09:16:32;32.13;;;17.75;;
32250;SDS011;41295;48.518;9.206;2023-02-15T09:18:37;31.33;;;16.88;;
32250;SDS011;41295;48.518;9.206;2023-02-15T09:20:41;36.83;;;17.90;;
32250;SDS011;41295;48.518;9.206;2023-02-15T09:22:44;35.05;;;17.10;;
32250;SDS011;41295;48.518;9.206;2023-02-15T09:24:47;30.65;;;16.33;;
32250;SDS011;41295;48.518;9.206;2023-02-15T09:26:49;31.63;;;16.27;;
32250;SDS011;41295;48.518;9.206;2023-02-15T09:28:53;28.92;;;15.50;;
32250;SDS011;41295;48.518;9.206;2023-02-15T09:31:03;30.98;;;16.92;;
32250;SDS011;41295;48.518;9.206;2023-02-15T09:33:07;27.83;;;14.43;;
32250;SDS011;41295;48.518;9.206;2023-02-15T09:35:10;27.30;;;14.10;;
32250;SDS011;41295;48.518;9.206;2023-02-15T09:37:13;27.13;;;14.45;;
32250;SDS011;41295;48.518;9.206;2023-02-15T09:39:18;28.73;;;15.27;;
32250;SDS011;41295;48.518;9.206;2023-02-15T09:41:44;28.80;;;16.33;;
32250;SDS011;41295;48.518;9.206;2023-02-15T09:44:19;28.98;;;14.88;;
32250;SDS011;41295;48.518;9.206;2023-02-15T09:46:34;34.10;;;16.33;;
32250;SDS011;41295;48.518;9.206;2023-02-15T09:48:51;31.87;;;16.90;;
32250;SDS011;41295;48.518;9.206;2023-02-15T09:51:05;29.30;;;15.93;;
32250;SDS011;41295;48.518;9.206;2023-02-15T09:53:26;32.63;;;15.40;;
32250;SDS011;41295;48.518;9.206;2023-02-15T09:55:42;29.13;;;15.68;;
32250;SDS011;41295;48.518;9.206;2023-02-15T09:57:54;39.53;;;15.95;;
32250;SDS011;41295;48.518;9.206;2023-02-15T10:00:09;33.58;;;15.07;;
32250;SDS011;41295;48.518;9.206;2023-02-15T10:02:21;29.73;;;16.23;;
32250;SDS011;41295;48.518;9.206;2023-02-15T10:04:42;28.70;;;15.27;;
32250;SDS011;41295;48.518;9.206;2023-02-15T10:06:59;26.92;;;15.80;;
32250;SDS011;41295;48.518;9.206;2023-02-15T10:09:19;31.05;;;15.35;;
32250;SDS011;41295;48.518;9.206;2023-02-15T10:11:40;28.90;;;15.48;;
32250;SDS011;41295;48.518;9.206;2023-02-15T10:13:57;26.70;;;15.25;;
32250;SDS011;41295;48.518;9.206;2023-02-15T10:16:13;33.53;;;16.90;;
32250;SDS011;41295;48.518;9.206;2023-02-15T10:18:32;31.52;;;17.35;;
32250;SDS011;41295;48.518;9.206;2023-02-15T10:20:49;27.83;;;15.80;;
32250;SDS011;41295;48.518;9.206;2023-02-15T10:23:11;31.95;;;15.95;;
32250;SDS011;41295;48.518;9.206;2023-02-15T10:25:27;36.08;;;16.77;;
32250;SDS011;41295;48.518;9.206;2023-02-15T10:27:35;33.85;;;17.45;;
32250;SDS011;41295;48.518;9.206;2023-02-15T10:29:44;32.10;;;16.65;;
32250;SDS011;41295;48.518;9.206;2023-02-15T10:34:10;33.38;;;17.88;;
32250;SDS011;41295;48.518;9.206;2023-02-15T10:36:21;35.42;;;16.70;;
32250;SDS011;41295;48.518;9.206;2023-02-15T10:38:35;36.08;;;18.52;;
32250;SDS011;41295;48.518;9.206;2023-02-15T10:40:46;37.88;;;18.20;;
32250;SDS011;41295;48.518;9.206;2023-02-15T10:43:12;37.53;;;17.95;;
32250;SDS011;41295;48.518;9.206;2023-02-15T10:45:23;32.33;;;16.35;;
32250;SDS011;41295;48.518;9.206;2023-02-15T10:50:17;31.85;;;17.30;;
32250;SDS011;41295;48.518;9.206;2023-02-15T10:52:29;34.35;;;17.20;;
32250;SDS011;41295;48.518;9.206;2023-02-15T10:54:45;30.95;;;16.92;;
32250;SDS011;41295;48.518;9.206;2023-02-15T10:56:58;31.02;;;16.58;;
32250;SDS011;41295;48.518;9.206;2023-02-15T10:59:15;37.20;;;18.10;;
32250;SDS011;41295;48.518;9.206;2023-02-15T11:01:27;30.73;;;17.58;;
32250;SDS011;41295;48.518;9.206;2023-02-15T11:03:40;32.17;;;18.03;;
32250;SDS011;41295;48.518;9.206;2023-02-15T11:06:00;34.55;;;17.48;;
32250;SDS011;41295;48.518;9.206;2023-02-15T11:08:07;29.65;;;17.40;;
32250;SDS011;41295;48.518;9.206;2023-02-15T11:10:14;29.92;;;17.60;;
32250;SDS011;41295;48.518;9.206;2023-02-15T11:12:28;34.10;;;17.90;;
32250;SDS011;41295;48.518;9.206;2023-02-15T11:14:35;31.88;;;17.10;;
32250;SDS011;41295;48.518;9.206;2023-02-15T11:16:44;31.25;;;17.40;;
32250;SDS011;41295;48.518;9.206;2023-02-15T11:18:50;30.00;;;17.23;;
32250;SDS011;41295;48.518;9.206;2023-02-15T11:20:57;30.30;;;16.58;;
32250;SDS011;41295;48.518;9.206;2023-02-15T11:23:07;28.98;;;16.25;;
32250;SDS011;41295;48.518;9.206;2023-02-15T11:25:18;30.88;;;16.95;;
32250;SDS011;41295;48.518;9.206;2023-02-15T11:27:25;31.75;;;17.52;;
32250;SDS011;41295;48.518;9.206;2023-02-15T11:29:32;25.73;;;15.93;;
32250;SDS011;41295;48.518;9.206;2023-02-15T11:31:41;26.77;;;15.10;;
32250;SDS011;41295;48.518;9.206;2023-02-15T11:33:48;26.33;;;15.20;;
32250;SDS011;41295;48.518;9.206;2023-02-15T11:35:55;28.02;;;15.77;;
32250;SDS011;41295;48.518;9.206;2023-02-15T11:38:04;28.70;;;16.05;;
32250;SDS011;41295;48.518;9.206;2023-02-15T11:40:17;27.20;;;15.25;;
32250;SDS011;41295;48.518;9.206;2023-02-15T11:42:23;33.08;;;16.15;;
32250;SDS011;41295;48.518;9.206;2023-02-15T11:44:28;27.40;;;15.63;;
32250;SDS011;41295;48.518;9.206;2023-02-15T11:46:36;25.20;;;15.20;;
32250;SDS011;41295;48.518;9.206;2023-02-15T11:48:39;28.27;;;14.98;;
32250;SDS011;41295;48.518;9.206;2023-02-15T11:50:43;25.90;;;14.88;;
32250;SDS011;41295;48.518;9.206;2023-02-15T11:52:46;30.23;;;14.10;;
32250;SDS011;41295;48.518;9.206;2023-02-15T11:54:50;24.98;;;14.15;;
32250;SDS011;41295;48.518;9.206;2023-02-15T11:56:55;23.13;;;14.32;;
32250;SDS011;41295;48.518;9.206;2023-02-15T11:59:03;29.52;;;14.77;;
32250;SDS011;41295;48.518;9.206;2023-02-15T12:01:14;28.83;;;14.95;;
32250;SDS011;41295;48.518;9.206;2023-02-15T12:03:24;32.28;;;14.98;;
32250;SDS011;41295;48.518;9.206;2023-02-15T12:05:32;24.27;;;14.10;;
32250;SDS011;41295;48.518;9.206;2023-02-15T12:07:40;30.98;;;14.63;;
32250;SDS011;41295;48.518;9.206;2023-02-15T12:09:48;23.05;;;13.98;;
32250;SDS011;41295;48.518;9.206;2023-02-15T12:11:55;28.55;;;13.80;;
32250;SDS011;41295;48.518;9.206;2023-02-15T12:14:25;22.88;;;10.70;;
32250;SDS011;41295;48.518;9.206;2023-02-15T12:16:28;23.35;;;12.30;;
32250;SDS011;41295;48.518;9.206;2023-02-15T12:18:36;22.52;;;12.38;;
32250;SDS011;41295;48.518;9.206;2023-02-15T12:20:40;22.45;;;13.05;;
32250;SDS011;41295;48.518;9.206;2023-02-15T12:22:45;25.88;;;12.52;;
32250;SDS011;41295;48.518;9.206;2023-02-15T12:24:51;20.90;;;11.52;;
32250;SDS011;41295;48.518;9.206;2023-02-15T12:26:57;30.13;;;12.95;;
32250;SDS011;41295;48.518;9.206;2023-02-15T12:29:06;22.83;;;11.77;;
32250;SDS011;41295;48.518;9.206;2023-02-15T12:31:19;25.17;;;12.90;;
32250;SDS011;41295;48.518;9.206;2023-02-15T12:33:26;21.02;;;12.00;;